createdAt,value
2019-04-12T00:00:19.684Z,5.80
2019-04-12T00:02:56.571Z,5.10
2019-04-12T00:05:32.065Z,5.10
2019-04-12T00:08:04.727Z,5.57
2019-04-12T00:10:30.966Z,5.23
2019-04-12T00:13:11.657Z,5.00
2019-04-12T00:15:45.692Z,5.13
2019-04-12T00:18:26.103Z,5.53
2019-04-12T00:20:50.824Z,5.80
2019-04-12T00:23:17.887Z,4.80
2019-04-12T00:25:47.829Z,4.87
2019-04-12T00:28:13.712Z,5.10
2019-04-12T00:30:40.783Z,4.93
2019-04-12T00:33:07.853Z,5.10
2019-04-12T00:35:34.912Z,5.17
2019-04-12T00:38:01.950Z,5.10
2019-04-12T00:40:31.369Z,5.53
2019-04-12T00:42:57.784Z,5.53
2019-04-12T00:45:24.847Z,4.80
2019-04-12T00:47:51.921Z,5.30
2019-04-12T00:50:18.992Z,5.07
2019-04-12T00:52:46.074Z,5.47
2019-04-12T00:55:13.123Z,4.70
2019-04-12T00:57:40.198Z,5.07
2019-04-12T01:00:07.246Z,4.80
2019-04-12T01:02:34.316Z,5.30
2019-04-12T01:05:01.378Z,4.83
2019-04-12T01:07:30.862Z,5.13
2019-04-12T01:09:57.208Z,5.90
2019-04-12T01:12:26.339Z,5.30
2019-04-12T01:14:53.096Z,5.20
2019-04-12T01:17:20.190Z,5.27
2019-04-12T01:19:47.232Z,5.13
2019-04-12T01:22:14.273Z,4.97
2019-04-12T01:24:41.959Z,5.27
2019-04-12T01:27:09.205Z,5.20
2019-04-12T01:29:36.270Z,5.17
2019-04-12T01:32:03.315Z,5.20
2019-04-12T01:34:30.452Z,4.93
2019-04-12T01:36:57.544Z,4.60
2019-04-12T01:39:24.612Z,4.73
2019-04-12T01:41:51.667Z,4.80
2019-04-12T01:44:18.756Z,5.07
2019-04-12T01:46:45.800Z,5.07
2019-04-12T01:49:12.847Z,4.40
2019-04-12T01:51:39.928Z,4.80
2019-04-12T01:54:07.002Z,5.10
2019-04-12T01:56:34.046Z,4.97
2019-04-12T01:59:01.125Z,5.50
2019-04-12T02:01:28.347Z,5.57
2019-04-12T02:03:55.397Z,5.40
2019-04-12T02:06:22.463Z,5.60
2019-04-12T02:08:49.540Z,5.83
2019-04-12T02:11:16.629Z,4.90
2019-04-12T02:13:43.682Z,6.20
2019-04-12T02:16:10.752Z,5.43
2019-04-12T02:18:37.802Z,4.90
2019-04-12T02:21:04.872Z,5.63
2019-04-12T02:23:31.972Z,5.47
2019-04-12T02:25:59.075Z,6.00
2019-04-12T02:28:26.119Z,5.80
2019-04-12T02:30:53.234Z,5.10
2019-04-12T02:33:20.275Z,4.77
2019-04-12T02:35:47.344Z,5.10
2019-04-12T02:38:14.384Z,5.60
2019-04-12T02:40:41.458Z,5.37
2019-04-12T02:43:08.532Z,4.80
2019-04-12T02:45:35.580Z,5.10
2019-04-12T02:48:02.643Z,4.80
2019-04-12T02:50:29.695Z,6.17
2019-04-12T02:52:56.769Z,5.47
2019-04-12T02:55:36.419Z,4.20
2019-04-12T02:57:52.581Z,5.27
2019-04-12T03:00:19.643Z,4.43
2019-04-12T03:02:46.702Z,5.43
2019-04-12T03:05:13.773Z,4.70
2019-04-12T03:07:40.825Z,5.47
2019-04-12T03:10:07.908Z,5.60
2019-04-12T03:12:34.962Z,5.50
2019-04-12T03:15:02.021Z,5.10
2019-04-12T03:17:29.110Z,5.20
2019-04-12T03:19:56.173Z,4.77
2019-04-12T03:22:23.400Z,5.10
2019-04-12T03:24:50.441Z,4.60
2019-04-12T03:27:17.664Z,5.00
2019-04-12T03:29:44.756Z,4.93
2019-04-12T03:32:12.321Z,5.40
2019-04-12T03:34:47.034Z,4.83
2019-04-12T03:37:24.799Z,5.37
2019-04-12T03:39:58.617Z,5.10
2019-04-12T03:42:28.723Z,5.67
2019-04-12T03:45:07.682Z,5.37
2019-04-12T03:47:46.076Z,5.07
2019-04-12T03:50:23.780Z,5.27
2019-04-12T03:52:51.080Z,4.57
2019-04-12T03:55:22.764Z,5.30
2019-04-12T03:57:49.839Z,5.50
2019-04-12T04:00:16.925Z,5.37
2019-04-12T04:02:44.153Z,5.13
2019-04-12T04:05:11.233Z,5.07
2019-04-12T04:07:49.324Z,5.10
2019-04-12T04:10:23.106Z,4.20
2019-04-12T04:12:53.722Z,5.40
2019-04-12T04:15:30.726Z,4.93
2019-04-12T04:18:06.904Z,5.60
2019-04-12T04:20:44.636Z,5.07
2019-04-12T04:23:18.144Z,4.93
2019-04-12T04:25:44.175Z,4.93
2019-04-12T04:28:11.232Z,5.03
2019-04-12T04:30:38.327Z,5.07
2019-04-12T04:33:05.561Z,4.47
2019-04-12T04:35:32.645Z,4.70
2019-04-12T04:37:59.739Z,4.53
2019-04-12T04:40:26.852Z,5.03
2019-04-12T04:42:53.933Z,6.03
2019-04-12T04:45:20.989Z,6.17
2019-04-12T04:47:48.034Z,6.03
2019-04-12T04:50:15.104Z,5.70
2019-04-12T04:52:42.243Z,5.87
2019-04-12T04:55:09.316Z,5.53
2019-04-12T04:57:36.393Z,6.03
2019-04-12T05:00:03.520Z,5.70
2019-04-12T05:02:30.664Z,5.57
2019-04-12T05:04:57.731Z,8.83
2019-04-12T05:07:24.828Z,7.23
2019-04-12T05:09:51.911Z,6.33
2019-04-12T05:12:19.234Z,6.13
2019-04-12T05:14:46.291Z,6.40
2019-04-12T05:17:13.757Z,6.30
2019-04-12T05:19:40.860Z,5.70
2019-04-12T05:22:08.054Z,6.13
2019-04-12T05:24:35.141Z,6.37
2019-04-12T05:27:02.252Z,5.70
2019-04-12T05:29:29.413Z,6.20
2019-04-12T05:31:56.457Z,7.10
2019-04-12T05:34:23.515Z,6.27
2019-04-12T05:36:50.843Z,6.67
2019-04-12T05:39:17.974Z,6.70
2019-04-12T05:41:56.078Z,5.40
2019-04-12T05:44:21.979Z,6.33
2019-04-12T05:46:53.536Z,5.80
2019-04-12T05:49:30.013Z,6.53
2019-04-12T05:52:04.882Z,5.60
2019-04-12T05:54:32.771Z,5.70
2019-04-12T05:57:00.767Z,5.90
2019-04-12T05:59:27.877Z,6.00
2019-04-12T06:01:54.906Z,6.23
2019-04-12T06:04:21.996Z,6.60
2019-04-12T06:06:49.051Z,6.20
2019-04-12T06:09:25.390Z,5.17
2019-04-12T06:12:01.076Z,5.03
2019-04-12T06:14:34.281Z,5.83
2019-04-12T06:17:05.991Z,6.07
2019-04-12T06:19:33.029Z,5.90
2019-04-12T06:22:00.104Z,6.43
2019-04-12T06:24:27.164Z,5.60
2019-04-12T06:26:54.229Z,6.30
2019-04-12T06:29:21.323Z,5.10
2019-04-12T06:31:48.470Z,5.00
2019-04-12T06:34:15.562Z,5.00
2019-04-12T06:36:42.652Z,6.10
2019-04-12T06:39:09.683Z,5.83
2019-04-12T06:41:36.784Z,6.43
2019-04-12T06:44:03.824Z,5.60
2019-04-12T06:46:30.918Z,6.20
2019-04-12T06:48:58.023Z,6.17
2019-04-12T06:51:25.091Z,5.30
2019-04-12T06:53:52.200Z,5.30
2019-04-12T06:56:19.240Z,6.10
2019-04-12T06:58:46.300Z,5.90
2019-04-12T07:01:13.399Z,5.90
2019-04-12T07:03:40.435Z,6.00
2019-04-12T07:06:07.499Z,6.10
2019-04-12T07:08:34.553Z,5.60
2019-04-12T07:11:01.639Z,5.90
2019-04-12T07:13:28.682Z,5.40
2019-04-12T07:15:55.732Z,5.40
2019-04-12T07:18:22.809Z,6.43
2019-04-12T07:20:49.866Z,6.20
2019-04-12T07:23:16.918Z,5.80
2019-04-12T07:25:43.980Z,6.33
2019-04-12T07:28:11.025Z,5.63
2019-04-12T07:30:38.115Z,5.97
2019-04-12T07:33:05.170Z,5.13
2019-04-12T07:35:32.253Z,5.93
2019-04-12T07:37:59.297Z,6.93
2019-04-12T07:40:26.409Z,6.17
2019-04-12T07:42:53.695Z,5.57
2019-04-12T07:45:20.783Z,6.60
2019-04-12T07:47:47.829Z,5.70
2019-04-12T07:50:18.708Z,5.50
2019-04-12T07:52:48.283Z,5.70
2019-04-12T07:55:26.980Z,6.20
2019-04-12T07:58:02.281Z,5.73
2019-04-12T08:00:28.228Z,5.77
2019-04-12T08:02:55.450Z,5.53
2019-04-12T08:05:22.511Z,5.30
2019-04-12T08:07:49.557Z,5.90
2019-04-12T08:10:16.652Z,5.47
2019-04-12T08:12:43.727Z,5.90
2019-04-12T08:15:13.604Z,5.67
2019-04-12T08:17:39.662Z,5.50
2019-04-12T08:20:06.724Z,6.07
2019-04-12T08:22:35.106Z,5.77
2019-04-12T08:25:04.713Z,5.80
2019-04-12T08:27:31.031Z,6.47
2019-04-12T08:29:58.103Z,6.00
2019-04-12T08:32:25.187Z,6.10
2019-04-12T08:34:52.288Z,5.30
2019-04-12T08:37:19.349Z,5.63
2019-04-12T08:39:46.387Z,5.53
2019-04-12T08:42:13.470Z,5.90
2019-04-12T08:44:40.528Z,7.30
2019-04-12T08:47:07.644Z,6.03
2019-04-12T08:49:42.776Z,5.33
2019-04-12T08:52:13.775Z,6.07
2019-04-12T08:54:42.949Z,5.73
2019-04-12T08:57:20.726Z,5.80
2019-04-12T08:59:50.808Z,6.17
2019-04-12T09:02:24.824Z,5.77
2019-04-12T09:04:57.957Z,6.03
2019-04-12T09:07:38.366Z,5.50
2019-04-12T09:10:10.168Z,6.07
2019-04-12T09:12:36.634Z,6.00
2019-04-12T09:15:03.857Z,5.17
2019-04-12T09:17:30.992Z,5.93
2019-04-12T09:19:59.063Z,6.03
2019-04-12T09:22:26.134Z,5.50
2019-04-12T09:24:53.190Z,5.50
2019-04-12T09:27:20.343Z,5.60
2019-04-12T09:29:47.502Z,5.93
2019-04-12T09:32:15.689Z,5.50
2019-04-12T09:34:42.801Z,6.20
2019-04-12T09:37:09.838Z,5.40
2019-04-12T09:39:36.883Z,5.90
2019-04-12T09:42:03.957Z,5.80
2019-04-12T09:44:31.115Z,5.90
2019-04-12T09:46:58.259Z,6.40
2019-04-12T09:49:25.351Z,7.50
2019-04-12T09:51:52.499Z,6.40
2019-04-12T09:54:29.211Z,6.57
2019-04-12T09:56:58.069Z,6.77
2019-04-12T09:59:25.358Z,6.40
2019-04-12T10:01:52.532Z,6.23
2019-04-12T10:04:19.615Z,6.20
2019-04-12T10:06:46.656Z,7.10
2019-04-12T10:09:26.644Z,6.23
2019-04-12T10:11:42.602Z,6.40
2019-04-12T10:14:09.685Z,6.60
2019-04-12T10:16:36.763Z,5.60
2019-04-12T10:19:03.844Z,5.53
2019-04-12T10:21:30.906Z,5.77
2019-04-12T10:23:57.987Z,6.03
2019-04-12T10:26:25.043Z,6.70
2019-04-12T10:28:52.121Z,6.43
2019-04-12T10:31:19.167Z,5.43
2019-04-12T10:33:46.936Z,6.20
2019-04-12T10:36:14.361Z,6.40
2019-04-12T10:38:41.475Z,5.60
2019-04-12T10:41:08.523Z,5.87
2019-04-12T10:43:35.611Z,6.07
2019-04-12T10:46:02.661Z,6.03
2019-04-12T10:48:29.751Z,5.20
2019-04-12T10:50:56.831Z,5.57
2019-04-12T10:53:23.919Z,6.27
2019-04-12T10:55:59.529Z,5.60
2019-04-12T10:58:35.070Z,5.57
2019-04-12T11:01:09.594Z,6.83
2019-04-12T11:03:42.880Z,6.63
2019-04-12T11:06:29.794Z,6.50
2019-04-12T11:08:52.797Z,7.80
2019-04-12T11:11:25.636Z,7.40
2019-04-12T11:13:59.939Z,6.43
2019-04-12T11:16:35.058Z,6.60
2019-04-12T11:19:08.136Z,6.37
2019-04-12T11:21:41.847Z,6.30
2019-04-12T11:24:16.417Z,7.13
2019-04-12T11:26:50.982Z,5.90
2019-04-12T11:29:21.204Z,7.30
2019-04-12T11:31:50.509Z,7.53
2019-04-12T11:34:21.361Z,8.13
2019-04-12T11:36:48.447Z,5.83
2019-04-12T11:39:20.504Z,7.50
2019-04-12T11:41:52.863Z,6.47
2019-04-12T11:44:31.065Z,7.87
2019-04-12T11:46:57.040Z,6.87
2019-04-12T11:49:24.122Z,7.20
2019-04-12T11:51:51.165Z,6.57
2019-04-12T11:54:18.246Z,7.13
2019-04-12T11:56:45.296Z,6.27
2019-04-12T11:59:12.403Z,7.23
2019-04-12T12:01:39.449Z,7.17
2019-04-12T12:04:06.531Z,6.67
2019-04-12T12:06:33.621Z,6.83
2019-04-12T12:09:00.684Z,7.73
2019-04-12T12:11:27.733Z,7.30
2019-04-12T12:13:54.814Z,6.40
2019-04-12T12:16:21.868Z,7.27
2019-04-12T12:18:48.976Z,7.10
2019-04-12T12:21:16.022Z,7.93
2019-04-12T12:23:43.071Z,6.93
2019-04-12T12:26:10.181Z,6.93
2019-04-12T12:28:37.256Z,7.50
2019-04-12T12:31:04.337Z,7.03
2019-04-12T12:33:31.387Z,6.90
2019-04-12T12:35:58.464Z,6.87
2019-04-12T12:38:25.537Z,7.07
2019-04-12T12:40:52.580Z,7.00
2019-04-12T12:43:19.662Z,7.50
2019-04-12T12:45:46.737Z,6.23
2019-04-12T12:48:13.868Z,7.37
2019-04-12T12:50:40.952Z,7.20
2019-04-12T12:53:08.006Z,6.50
2019-04-12T12:55:35.079Z,6.77
2019-04-12T12:58:02.125Z,6.83
2019-04-12T13:00:29.209Z,7.30
2019-04-12T13:02:56.354Z,7.47
2019-04-12T13:05:23.421Z,6.40
2019-04-12T13:07:50.473Z,6.40
2019-04-12T13:10:17.549Z,6.60
2019-04-12T13:12:44.623Z,6.70
2019-04-12T13:15:11.700Z,6.43
2019-04-12T13:17:38.798Z,6.60
2019-04-12T13:20:05.841Z,6.80
2019-04-12T13:22:32.961Z,6.43
2019-04-12T13:25:00.062Z,7.00
2019-04-12T13:27:27.136Z,6.60
2019-04-12T13:30:06.029Z,6.53
2019-04-12T13:32:23.561Z,6.97
2019-04-12T13:34:50.585Z,6.53
2019-04-12T13:37:17.664Z,7.50
2019-04-12T13:39:44.702Z,6.77
2019-04-12T13:42:11.783Z,6.97
2019-04-12T13:44:38.843Z,6.57
2019-04-12T13:47:06.023Z,6.67
2019-04-12T13:49:33.096Z,6.63
2019-04-12T13:52:02.188Z,7.33
2019-04-12T13:54:28.922Z,6.70
2019-04-12T13:56:55.996Z,6.57
2019-04-12T13:59:23.063Z,6.70
2019-04-12T14:01:50.179Z,7.07
2019-04-12T14:04:17.224Z,7.10
2019-04-12T14:06:44.304Z,6.60
2019-04-12T14:09:11.387Z,6.33
2019-04-12T14:11:38.439Z,6.47
2019-04-12T14:14:05.488Z,6.63
2019-04-12T14:16:32.564Z,7.37
2019-04-12T14:18:59.695Z,7.00
2019-04-12T14:21:26.792Z,6.80
2019-04-12T14:23:53.990Z,5.70
2019-04-12T14:26:21.039Z,6.73
2019-04-12T14:28:48.133Z,6.97
2019-04-12T14:31:15.261Z,6.43
2019-04-12T14:33:42.399Z,7.20
2019-04-12T14:36:09.484Z,7.07
2019-04-12T14:38:36.541Z,6.53
2019-04-12T14:41:03.624Z,6.47
2019-04-12T14:43:30.692Z,6.17
2019-04-12T14:45:57.763Z,6.20
2019-04-12T14:48:24.818Z,6.83
2019-04-12T14:50:51.898Z,6.30
2019-04-12T14:53:18.952Z,6.40
2019-04-12T14:55:46.095Z,6.13
2019-04-12T14:58:13.140Z,6.70
2019-04-12T15:00:45.733Z,6.30
2019-04-12T15:03:09.061Z,6.93
2019-04-12T15:05:36.258Z,6.37
2019-04-12T15:08:03.325Z,5.93
2019-04-12T15:10:30.439Z,5.70
2019-04-12T15:12:57.533Z,5.83
2019-04-12T15:15:24.574Z,6.83
2019-04-12T15:17:51.624Z,6.57
2019-04-12T15:20:18.701Z,5.97
2019-04-12T15:22:45.755Z,6.20
2019-04-12T15:25:12.819Z,5.93
2019-04-12T15:27:39.939Z,6.00
2019-04-12T15:30:06.987Z,6.67
2019-04-12T15:32:34.078Z,6.83
2019-04-12T15:35:01.150Z,7.00
2019-04-12T15:37:28.312Z,6.53
2019-04-12T15:39:55.378Z,6.67
2019-04-12T15:42:22.454Z,6.57
2019-04-12T15:44:49.611Z,6.50
2019-04-12T15:47:17.604Z,6.30
2019-04-12T15:49:44.734Z,5.97
2019-04-12T15:52:11.842Z,6.10
2019-04-12T15:54:38.908Z,6.60
2019-04-12T15:57:06.003Z,6.27
2019-04-12T15:59:33.074Z,6.20
2019-04-12T16:02:00.132Z,6.23
2019-04-12T16:04:27.258Z,6.90
2019-04-12T16:06:54.362Z,6.60
2019-04-12T16:09:21.469Z,6.03
2019-04-12T16:11:48.517Z,6.10
2019-04-12T16:14:15.591Z,6.47
2019-04-12T16:16:42.661Z,6.57
2019-04-12T16:19:09.746Z,6.60
2019-04-12T16:21:36.880Z,6.60
2019-04-12T16:24:03.930Z,7.20
2019-04-12T16:26:31.005Z,7.73
2019-04-12T16:28:58.049Z,6.50
2019-04-12T16:31:25.140Z,6.27
2019-04-12T16:33:52.213Z,7.23
2019-04-12T16:36:19.288Z,7.00
2019-04-12T16:38:46.365Z,6.67
2019-04-12T16:41:13.451Z,7.37
2019-04-12T16:43:40.615Z,7.87
2019-04-12T16:46:07.702Z,8.50
2019-04-12T16:48:34.862Z,8.43
2019-04-12T16:51:01.922Z,7.40
2019-04-12T16:53:29.259Z,7.50
2019-04-12T16:55:56.308Z,6.80
2019-04-12T16:58:23.383Z,6.90
2019-04-12T17:00:50.543Z,8.80
2019-04-12T17:03:17.674Z,7.13
2019-04-12T17:05:45.032Z,7.10
2019-04-12T17:08:12.296Z,7.13
2019-04-12T17:10:39.459Z,7.63
2019-04-12T17:13:06.535Z,7.20
2019-04-12T17:15:33.681Z,33.37
2019-04-12T17:18:00.784Z,23.67
2019-04-12T17:20:27.840Z,20.30
2019-04-12T17:22:54.921Z,15.77
2019-04-12T17:25:22.047Z,15.67
2019-04-12T17:27:49.177Z,14.23
2019-04-12T17:30:16.251Z,16.17
2019-04-12T17:32:43.309Z,13.17
2019-04-12T17:35:10.404Z,12.27
2019-04-12T17:37:37.506Z,11.00
2019-04-12T17:40:04.553Z,12.30
2019-04-12T17:42:31.609Z,12.03
2019-04-12T17:44:58.863Z,10.70
2019-04-12T17:47:26.640Z,11.93
2019-04-12T17:49:53.744Z,12.10
2019-04-12T17:52:20.829Z,12.53
2019-04-12T17:54:47.886Z,11.37
2019-04-12T17:57:15.003Z,12.23
2019-04-12T17:59:42.054Z,12.23
2019-04-12T18:02:09.141Z,11.37
2019-04-12T18:04:36.221Z,12.63
2019-04-12T18:07:03.289Z,13.70
2019-04-12T18:09:30.345Z,13.37
2019-04-12T18:11:57.431Z,14.40
2019-04-12T18:14:24.678Z,16.97
2019-04-12T18:16:51.734Z,14.73
2019-04-12T18:19:18.819Z,15.43
2019-04-12T18:21:45.939Z,16.90
2019-04-12T18:24:13.041Z,17.20
2019-04-12T18:26:40.094Z,16.70
2019-04-12T18:29:07.181Z,16.53
2019-04-12T18:31:34.249Z,15.00
2019-04-12T18:34:01.356Z,16.43
2019-04-12T18:36:28.405Z,16.60
2019-04-12T18:38:55.453Z,15.43
2019-04-12T18:41:22.531Z,16.27
2019-04-12T18:43:49.637Z,16.53
2019-04-12T18:46:18.859Z,16.93
2019-04-12T18:48:45.437Z,16.40
2019-04-12T18:51:12.520Z,16.00
2019-04-12T18:53:39.684Z,15.23
2019-04-12T18:56:06.796Z,16.63
2019-04-12T18:58:33.849Z,18.70
2019-04-12T19:01:01.053Z,15.13
2019-04-12T19:03:28.157Z,16.40
2019-04-12T19:05:56.029Z,15.83
2019-04-12T19:08:23.126Z,16.20
2019-04-12T19:10:50.206Z,16.03
2019-04-12T19:13:17.275Z,15.07
2019-04-12T19:15:44.489Z,16.27
2019-04-12T19:18:11.637Z,15.47
2019-04-12T19:20:38.719Z,15.87
2019-04-12T19:23:05.815Z,16.00
2019-04-12T19:25:32.894Z,15.07
2019-04-12T19:28:00.030Z,16.53
2019-04-12T19:30:27.108Z,15.43
2019-04-12T19:32:54.158Z,16.20
2019-04-12T19:35:21.284Z,14.83
2019-04-12T19:37:48.342Z,14.87
2019-04-12T19:40:15.441Z,14.90
2019-04-12T19:42:42.510Z,15.13
2019-04-12T19:45:09.614Z,15.53
2019-04-12T19:47:36.694Z,15.30
2019-04-12T19:50:03.764Z,14.90
2019-04-12T19:52:30.857Z,15.60
2019-04-12T19:54:57.926Z,14.17
2019-04-12T19:57:24.995Z,14.77
2019-04-12T19:59:52.052Z,14.20
2019-04-12T20:02:19.370Z,13.90
2019-04-12T20:04:46.480Z,14.47
2019-04-12T20:07:13.538Z,14.10
2019-04-12T20:09:40.640Z,15.00
2019-04-12T20:12:13.151Z,13.47
2019-04-12T20:14:36.538Z,12.80
2019-04-12T20:17:03.752Z,14.57
2019-04-12T20:19:30.930Z,13.40
2019-04-12T20:21:58.194Z,13.07
2019-04-12T20:24:25.247Z,14.17
2019-04-12T20:26:52.423Z,13.60
2019-04-12T20:29:19.558Z,14.27
2019-04-12T20:31:46.755Z,14.13
2019-04-12T20:34:13.987Z,14.03
2019-04-12T20:36:41.068Z,13.27
2019-04-12T20:39:08.179Z,13.13
2019-04-12T20:41:35.434Z,13.37
2019-04-12T20:44:02.616Z,12.80
2019-04-12T20:46:29.895Z,12.57
2019-04-12T20:48:56.990Z,13.10
2019-04-12T20:51:24.067Z,12.13
2019-04-12T20:53:51.186Z,12.83
2019-04-12T20:56:18.462Z,11.80
2019-04-12T20:58:45.618Z,13.30
2019-04-12T21:01:13.018Z,13.33
2019-04-12T21:03:40.236Z,12.43
2019-04-12T21:06:07.309Z,13.23
2019-04-12T21:08:34.517Z,13.60
2019-04-12T21:11:01.614Z,12.97
2019-04-12T21:13:29.070Z,11.80
2019-04-12T21:15:56.298Z,11.53
2019-04-12T21:18:23.951Z,11.87
2019-04-12T21:20:51.062Z,10.43
2019-04-12T21:23:18.200Z,10.90
2019-04-12T21:25:45.277Z,13.33
2019-04-12T21:28:12.445Z,10.60
2019-04-12T21:30:39.588Z,11.00
2019-04-12T21:33:06.980Z,11.40
2019-04-12T21:35:34.027Z,11.27
2019-04-12T21:38:01.275Z,11.70
2019-04-12T21:40:28.354Z,12.00
2019-04-12T21:42:55.519Z,10.23
2019-04-12T21:45:22.621Z,11.50
2019-04-12T21:47:49.736Z,10.30
2019-04-12T21:50:16.870Z,10.33
2019-04-12T21:52:43.957Z,10.80
2019-04-12T21:55:11.077Z,10.90
2019-04-12T21:57:38.860Z,9.63
2019-04-12T22:00:06.014Z,10.90
2019-04-12T22:02:33.161Z,10.50
2019-04-12T22:05:00.254Z,9.93
2019-04-12T22:07:27.345Z,9.53
2019-04-12T22:09:54.411Z,9.60
2019-04-12T22:12:21.488Z,11.10
2019-04-12T22:14:48.545Z,9.50
2019-04-12T22:17:15.617Z,9.57
2019-04-12T22:19:42.690Z,10.03
2019-04-12T22:22:09.744Z,8.60
2019-04-12T22:24:36.790Z,9.20
2019-04-12T22:27:03.987Z,8.07
2019-04-12T22:29:31.072Z,10.37
2019-04-12T22:31:58.187Z,9.27
2019-04-12T22:34:25.450Z,10.43
2019-04-12T22:36:52.491Z,9.23
2019-04-12T22:39:19.768Z,9.30
2019-04-12T22:41:46.886Z,9.57
2019-04-12T22:44:13.935Z,8.47
2019-04-12T22:46:41.032Z,8.40
2019-04-12T22:49:08.210Z,9.87
2019-04-12T22:51:35.266Z,9.40
2019-04-12T22:54:02.434Z,8.80
2019-04-12T22:56:29.530Z,8.50
2019-04-12T22:58:56.565Z,8.47
2019-04-12T23:01:23.639Z,9.63
2019-04-12T23:03:50.852Z,8.10
2019-04-12T23:06:17.940Z,8.40
2019-04-12T23:08:45.116Z,7.93
2019-04-12T23:11:12.630Z,7.90
2019-04-12T23:13:39.758Z,8.33
2019-04-12T23:16:06.865Z,9.07
2019-04-12T23:18:34.002Z,8.90
2019-04-12T23:21:02.765Z,7.80
2019-04-12T23:23:29.802Z,8.10
2019-04-12T23:25:56.999Z,8.50
2019-04-12T23:28:24.156Z,8.47
2019-04-12T23:30:51.420Z,7.63
2019-04-12T23:33:18.652Z,8.13
2019-04-12T23:35:45.718Z,7.17
2019-04-12T23:38:12.915Z,8.10
2019-04-12T23:40:39.964Z,7.73
2019-04-12T23:43:07.078Z,7.90
2019-04-12T23:45:34.304Z,7.97
2019-04-12T23:48:01.397Z,8.27
2019-04-12T23:50:28.465Z,7.20
2019-04-12T23:52:55.564Z,7.30
2019-04-12T23:55:22.618Z,8.10
2019-04-12T23:57:50.027Z,7.63
